Time;durP1;ratioP1;P1;durP2;ratioP2;P2;SDS_P1;SDS_P2;PMS_P1;PMS_P2;Temp;Humidity;BMP_temperature;BMP_pressure;BME280_temperature;BME280_humidity;BME280_pressure;Samples;Min_cycle;Max_cycle;Signal;HPM_P1;HPM_P2
2023/06/01 00:04:26;;;;;;;4.00;1.85;;;;;;;20.90;42.70;100458.44;10338768;28;20046;-51
2023/06/01 00:09:28;;;;;;;2.65;1.45;;;;;;;20.86;43.02;100451.69;10342105;28;20065;-51
2023/06/01 00:14:30;;;;;;;4.55;1.83;;;;;;;20.80;43.17;100443.28;10344334;28;20053;-50
2023/06/01 00:19:31;;;;;;;3.47;1.50;;;;;;;20.78;43.43;100450.75;10342606;28;20790;-51
2023/06/01 00:24:33;;;;;;;2.42;1.48;;;;;;;20.75;43.77;100444.91;10327756;28;20053;-51
2023/06/01 00:29:34;;;;;;;3.28;1.48;;;;;;;20.62;43.98;100442.78;10343043;28;20060;-51
2023/06/01 00:34:36;;;;;;;5.20;1.58;;;;;;;20.54;44.50;100449.13;10338348;28;20058;-52
2023/06/01 00:39:37;;;;;;;3.75;1.77;;;;;;;20.55;44.71;100439.13;10345558;28;20152;-51
2023/06/01 00:44:39;;;;;;;2.70;1.52;;;;;;;20.52;44.75;100440.34;10349379;28;20050;-51
2023/06/01 00:49:40;;;;;;;4.28;1.45;;;;;;;20.47;44.70;100438.19;10328425;28;20141;-55
2023/06/01 00:54:42;;;;;;;2.35;1.42;;;;;;;20.42;44.99;100435.22;10339819;28;20574;-51
2023/06/01 00:59:43;;;;;;;3.35;1.52;;;;;;;20.27;45.34;100434.34;10341779;28;20729;-51
2023/06/01 01:04:45;;;;;;;2.88;1.33;;;;;;;20.29;45.06;100435.00;10342544;28;20050;-50
2023/06/01 01:09:58;;;;;;;2.70;1.38;;;;;;;20.25;45.26;100434.53;10342101;28;20056;-51
2023/06/01 01:15:08;;;;;;;2.53;1.60;;;;;;;20.12;45.56;100435.13;10337799;28;20180;-51
2023/06/01 01:20:15;;;;;;;3.08;1.73;;;;;;;20.12;45.54;100431.59;10335686;28;20252;-51
2023/06/01 01:25:52;;;;;;;2.55;1.40;;;;;;;20.14;45.59;100433.06;10337243;28;20060;-51
2023/06/01 01:30:56;;;;;;;6.78;1.70;;;;;;;20.12;45.37;100434.31;10334244;28;20226;-51
2023/06/01 01:35:58;;;;;;;;;;;;;;;20.10;45.25;100439.88;10338130;28;20280;-50
2023/06/01 01:41:00;;;;;;;3.85;2.10;;;;;;;20.00;45.24;100431.19;10338173;28;19936;-50
2023/06/01 01:46:08;;;;;;;2.85;1.67;;;;;;;19.93;45.96;100414.84;10337329;28;20053;-50
2023/06/01 01:51:22;;;;;;;3.40;1.50;;;;;;;19.94;45.81;100421.09;10344999;28;20116;-50
2023/06/01 01:56:25;;;;;;;3.00;1.40;;;;;;;19.88;45.46;100421.84;10326379;28;20065;-50
2023/06/01 02:01:27;;;;;;;4.35;1.80;;;;;;;19.84;45.82;100417.81;10338755;28;20050;-51
2023/06/01 02:06:30;;;;;;;4.50;1.40;;;;;;;19.79;46.02;100404.84;10344684;28;20057;-51
2023/06/01 02:11:35;;;;;;;3.35;1.20;;;;;;;19.82;46.04;100406.34;10348739;28;20664;-51
2023/06/01 02:16:37;;;;;;;3.97;1.77;;;;;;;19.78;45.81;100412.06;10348975;28;20060;-50
2023/06/01 02:21:39;;;;;;;3.40;1.40;;;;;;;19.66;45.77;100391.88;10342612;28;20060;-50
2023/06/01 02:26:40;;;;;;;5.93;1.88;;;;;;;19.70;45.75;100401.31;10344057;28;20049;-50
2023/06/01 02:31:42;;;;;;;2.45;1.20;;;;;;;19.55;46.17;100406.66;10346298;28;20049;-50
2023/06/01 02:36:43;;;;;;;3.13;1.48;;;;;;;19.49;46.38;100407.38;10343231;28;25595;-50
2023/06/01 02:41:44;;;;;;;4.18;1.50;;;;;;;19.40;46.61;100398.47;10328315;28;20041;-50
2023/06/01 02:46:46;;;;;;;5.35;1.83;;;;;;;19.40;46.50;100398.47;10343216;28;20183;-50
2023/06/01 02:51:47;;;;;;;2.90;1.45;;;;;;;19.37;46.76;100392.59;10344661;28;20665;-50
2023/06/01 02:56:49;;;;;;;8.90;2.70;;;;;;;19.22;46.99;100400.59;10348492;28;20559;-51
2023/06/01 03:01:50;;;;;;;3.75;1.50;;;;;;;19.25;46.89;100389.47;10342231;28;20634;-50
2023/06/01 03:06:52;;;;;;;3.20;1.55;;;;;;;19.07;47.34;100395.94;10346851;28;20053;-49
2023/06/01 03:11:54;;;;;;;3.60;1.88;;;;;;;19.08;47.33;100394.94;10326135;28;20053;-52
2023/06/01 03:16:55;;;;;;;4.75;1.58;;;;;;;19.04;47.53;100392.78;10347374;28;20049;-50
2023/06/01 03:21:57;;;;;;;4.25;1.52;;;;;;;19.05;47.26;100392.59;10344885;28;20053;-50
2023/06/01 03:26:58;;;;;;;2.33;1.40;;;;;;;18.92;47.37;100384.22;10339212;28;20883;-50
2023/06/01 03:32:00;;;;;;;3.10;2.00;;;;;;;18.93;47.43;100395.84;10342847;28;20053;-50
2023/06/01 03:37:04;;;;;;;5.72;1.83;;;;;;;18.80;48.14;100393.69;10340715;28;20057;-51
2023/06/01 03:42:07;;;;;;;4.32;2.10;;;;;;;18.82;48.07;100394.34;10335291;28;20076;-50
2023/06/01 03:47:08;;;;;;;4.43;1.83;;;;;;;18.86;48.09;100398.41;10336273;28;20168;-51
2023/06/01 03:52:10;;;;;;;2.53;1.48;;;;;;;18.86;47.87;100403.81;10352109;28;20243;-55
2023/06/01 03:57:12;;;;;;;2.88;1.50;;;;;;;18.73;48.35;100401.59;10347249;28;20061;-51
2023/06/01 04:02:13;;;;;;;3.55;1.35;;;;;;;18.83;48.04;100396.03;10331486;28;20356;-51
2023/06/01 04:07:18;;;;;;;3.17;1.65;;;;;;;18.71;48.21;100399.09;10346863;28;20119;-51
2023/06/01 04:12:20;;;;;;;2.88;1.60;;;;;;;18.73;48.93;100401.59;10339930;28;20057;-51
2023/06/01 04:17:21;;;;;;;4.03;1.90;;;;;;;18.79;48.72;100394.69;10347794;28;20141;-50
2023/06/01 04:22:23;;;;;;;3.70;1.77;;;;;;;18.67;49.23;100392.34;10336853;28;20118;-51
2023/06/01 04:27:24;;;;;;;3.42;2.03;;;;;;;18.71;49.33;100398.25;10345496;28;20053;-51
2023/06/01 04:32:27;;;;;;;5.32;1.83;;;;;;;18.72;49.35;100400.78;10345873;28;20383;-51
2023/06/01 04:37:29;;;;;;;5.75;2.35;;;;;;;18.71;49.50;100407.16;10349980;28;20048;-51
2023/06/01 04:42:31;;;;;;;2.72;1.73;;;;;;;18.75;49.19;100410.38;10324777;28;20084;-51
2023/06/01 04:47:37;;;;;;;2.90;1.55;;;;;;;18.78;49.35;100414.56;10343698;28;20049;-51
2023/06/01 04:52:40;;;;;;;3.28;1.73;;;;;;;18.82;49.43;100415.91;10343303;28;20060;-51
2023/06/01 04:57:45;;;;;;;4.93;1.70;;;;;;;18.84;49.46;100413.88;10347387;28;20156;-51
2023/06/01 05:02:48;;;;;;;6.35;2.03;;;;;;;18.88;49.48;100420.63;10346034;28;20693;-52
2023/06/01 05:07:50;;;;;;;2.07;1.40;;;;;;;18.69;49.51;100406.50;10335769;28;20048;-60
2023/06/01 05:12:51;;;;;;;5.82;1.95;;;;;;;18.69;49.75;100427.22;10338846;28;20184;-61
2023/06/01 05:17:53;;;;;;;1.98;1.77;;;;;;;18.75;49.24;100412.22;10316875;28;20091;-61
2023/06/01 05:22:55;;;;;;;4.75;2.53;;;;;;;18.91;49.89;100420.28;10328753;28;20064;-62
2023/06/01 05:27:57;;;;;;;3.05;1.70;;;;;;;18.98;49.39;100423.16;10338569;28;20054;-66
2023/06/01 05:32:58;;;;;;;5.32;1.77;;;;;;;19.06;49.41;100423.94;10319882;28;20202;-61
2023/06/01 05:38:00;;;;;;;3.45;1.60;;;;;;;19.11;49.75;100415.34;10338831;28;20422;-61
2023/06/01 05:43:02;;;;;;;4.03;1.67;;;;;;;19.18;49.97;100415.47;10336546;28;20111;-61
2023/06/01 05:48:04;;;;;;;4.00;2.10;;;;;;;19.26;49.62;100423.53;10325174;28;20061;-61
2023/06/01 05:53:08;;;;;;;3.15;1.63;;;;;;;19.30;49.18;100422.13;10322763;28;20152;-61
2023/06/01 05:58:10;;;;;;;;;;;;;;;19.24;49.80;100420.97;10327842;28;20604;-61
2023/06/01 06:03:13;;;;;;;2.67;2.03;;;;;;;19.00;50.10;100413.84;10302327;28;19929;-61
2023/06/01 06:08:15;;;;;;;3.42;1.40;;;;;;;19.31;49.84;100417.59;10324585;28;20057;-61
2023/06/01 06:13:16;;;;;;;2.75;1.70;;;;;;;19.49;50.10;100420.88;10318964;28;20073;-61
2023/06/01 06:18:19;;;;;;;3.03;1.80;;;;;;;19.55;49.72;100422.84;10329346;28;20493;-61
2023/06/01 06:23:21;;;;;;;3.88;1.92;;;;;;;19.73;49.27;100430.66;10335438;28;20477;-61
2023/06/01 06:28:23;;;;;;;5.90;2.83;;;;;;;19.94;49.58;100431.91;10335987;28;20257;-51
2023/06/01 06:33:24;;;;;;;4.30;1.73;;;;;;;20.10;48.64;100426.38;10339584;28;20873;-61
2023/06/01 06:38:26;;;;;;;2.60;1.50;;;;;;;20.24;48.23;100426.59;10340116;28;20473;-62
2023/06/01 06:43:28;;;;;;;1.60;1.45;;;;;;;20.37;48.04;100425.97;10337449;28;20061;-61
2023/06/01 06:48:30;;;;;;;3.80;1.38;;;;;;;20.53;47.84;100424.97;10326416;28;20057;-61
2023/06/01 06:53:33;;;;;;;3.95;1.73;;;;;;;20.66;47.42;100425.22;10337471;28;20053;-60
2023/06/01 06:58:35;;;;;;;4.50;1.80;;;;;;;20.79;47.60;100420.00;10340546;28;20057;-61
2023/06/01 07:03:38;;;;;;;4.70;1.52;;;;;;;20.81;46.93;100434.16;10342064;28;20704;-61
2023/06/01 07:08:40;;;;;;;3.40;1.80;;;;;;;20.91;46.85;100433.03;10328734;28;20045;-62
2023/06/01 07:13:42;;;;;;;5.28;1.92;;;;;;;21.06;46.96;100430.31;10339441;28;20413;-61
2023/06/01 07:18:44;;;;;;;5.60;1.57;;;;;;;21.26;46.55;100422.44;10336163;28;20068;-61
2023/06/01 07:23:46;;;;;;;2.97;1.67;;;;;;;21.48;46.51;100424.19;10325063;28;20136;-61
2023/06/01 07:28:53;;;;;;;2.13;1.45;;;;;;;21.63;45.86;100426.88;10332216;28;20065;-60
2023/06/01 07:33:55;;;;;;;4.03;2.72;;;;;;;21.81;45.45;100429.16;10338878;28;20064;-62
2023/06/01 07:38:57;;;;;;;4.05;1.70;;;;;;;21.97;44.58;100422.63;10331364;28;20049;-61
2023/06/01 07:43:59;;;;;;;3.33;1.30;;;;;;;21.93;44.34;100431.34;10336904;28;20100;-61
2023/06/01 07:49:01;;;;;;;4.38;1.35;;;;;;;22.12;44.74;100425.25;10324892;28;20148;-62
2023/06/01 07:54:03;;;;;;;3.83;1.40;;;;;;;22.33;44.27;100426.31;10323917;28;20603;-61
2023/06/01 07:59:05;;;;;;;3.58;1.52;;;;;;;22.53;43.70;100415.59;10336787;28;20052;-61
2023/06/01 08:04:06;;;;;;;3.10;1.48;;;;;;;22.66;43.93;100420.28;10337551;28;20060;-60
2023/06/01 08:09:09;;;;;;;4.30;1.30;;;;;;;22.85;42.79;100411.41;10320631;28;20398;-61
2023/06/01 08:14:11;;;;;;;4.35;1.70;;;;;;;22.98;41.98;100401.66;10332420;28;20061;-61
2023/06/01 08:19:13;;;;;;;2.83;1.45;;;;;;;23.18;42.12;100401.75;10332822;28;20238;-60
2023/06/01 08:24:16;;;;;;;3.90;1.90;;;;;;;23.35;41.66;100392.22;10315514;28;20132;-60
2023/06/01 08:29:17;;;;;;;3.65;1.70;;;;;;;23.52;41.61;100391.84;10331017;28;20072;-61
2023/06/01 08:34:34;;;;;;;2.22;1.10;;;;;;;23.67;40.24;100386.25;10300968;28;20042;-59
2023/06/01 08:39:36;;;;;;;3.22;1.35;;;;;;;23.89;41.33;100381.50;10334472;28;20061;-60
2023/06/01 08:44:40;;;;;;;4.32;1.40;;;;;;;24.13;39.33;100383.59;10351172;28;20365;-60
2023/06/01 08:49:44;;;;;;;1.73;1.20;;;;;;;24.25;38.62;100385.69;10340700;28;20713;-66
2023/06/01 08:54:46;;;;;;;2.83;1.75;;;;;;;24.48;38.95;100377.06;10335563;28;20053;-61
2023/06/01 08:59:48;;;;;;;2.90;1.40;;;;;;;24.60;38.48;100374.56;10334851;28;20117;-60
2023/06/01 09:04:50;;;;;;;3.55;1.45;;;;;;;24.38;39.47;100368.50;10330323;28;20195;-62
2023/06/01 09:09:51;;;;;;;5.15;2.10;;;;;;;24.75;39.01;100375.13;10329598;28;20053;-66
2023/06/01 09:15:16;;;;;;;3.75;3.30;;;;;;;24.94;39.04;100359.78;10327060;28;20497;-61
2023/06/01 09:20:27;;;;;;;7.80;2.40;;;;;;;25.17;38.51;100355.69;10326635;28;20057;-60
2023/06/01 09:25:32;;;;;;;3.67;1.83;;;;;;;25.30;39.12;100350.22;10325812;28;20421;-60
2023/06/01 09:30:42;;;;;;;5.05;1.70;;;;;;;25.42;38.97;100347.63;10332159;28;20049;-60
2023/06/01 09:35:48;;;;;;;4.47;1.60;;;;;;;25.58;37.66;100344.38;10314523;28;20128;-60
2023/06/01 09:41:01;;;;;;;4.45;1.35;;;;;;;25.79;37.72;100346.94;10300442;28;20057;-60
2023/06/01 09:46:06;;;;;;;2.65;1.35;;;;;;;25.96;36.47;100339.88;10330129;28;20163;-60
2023/06/01 09:51:29;;;;;;;4.15;1.35;;;;;;;26.01;35.77;100334.63;10312873;28;20110;-61
2023/06/01 09:56:43;;;;;;;5.57;1.85;;;;;;;26.11;34.85;100343.13;10326300;28;20050;-61
2023/06/01 10:01:50;;;;;;;4.00;1.55;;;;;;;25.68;37.07;100330.25;10326313;28;20064;-60
2023/06/01 10:06:54;;;;;;;4.78;1.38;;;;;;;25.94;36.25;100328.34;10317372;28;20744;-65
2023/06/01 10:11:58;;;;;;;2.60;1.27;;;;;;;26.25;32.95;100319.28;10320817;28;20050;-60
2023/06/01 10:17:00;;;;;;;3.60;1.48;;;;;;;26.45;33.86;100321.81;10336862;28;20451;-60
2023/06/01 10:22:03;;;;;;;2.33;1.13;;;;;;;26.69;32.94;100318.41;10315694;28;20061;-60
2023/06/01 10:27:22;;;;;;;3.40;1.15;;;;;;;26.55;32.11;100315.81;10323290;28;20041;-60
2023/06/01 10:32:48;;;;;;;3.47;1.30;;;;;;;26.79;29.79;100300.44;10341493;28;20207;-60
2023/06/01 10:38:06;;;;;;;2.65;1.48;;;;;;;27.09;31.84;100296.88;10347633;28;20167;-60
2023/06/01 10:43:40;;;;;;;4.75;1.60;;;;;;;27.29;31.44;100290.28;10344412;28;20078;-60
2023/06/01 10:48:55;;;;;;;3.28;1.45;;;;;;;27.60;31.28;100296.59;10322676;28;20057;-61
2023/06/01 10:54:25;;;;;;;3.00;1.35;;;;;;;27.79;30.54;100303.63;10317056;28;20056;-62
2023/06/01 10:59:27;;;;;;;2.08;1.13;;;;;;;27.93;30.85;100289.72;10324574;28;20127;-61
2023/06/01 11:04:36;;;;;;;3.03;1.17;;;;;;;28.01;31.55;100290.22;10306190;28;20054;-60
2023/06/01 11:09:45;;;;;;;1.75;0.95;;;;;;;28.14;30.90;100275.44;10319829;28;20176;-61
2023/06/01 11:15:11;;;;;;;3.78;1.13;;;;;;;28.27;29.93;100284.47;10320120;28;20568;-60
2023/06/01 11:20:14;;;;;;;3.33;1.10;;;;;;;28.40;29.81;100273.28;10337538;28;20077;-60
2023/06/01 11:25:17;;;;;;;2.47;1.27;;;;;;;28.22;29.62;100268.78;10320439;28;20257;-61
2023/06/01 11:30:19;;;;;;;2.33;1.08;;;;;;;27.86;31.47;100263.31;10333172;28;20333;-61
2023/06/01 11:35:22;;;;;;;4.50;1.27;;;;;;;27.93;29.69;100257.72;10330889;28;20106;-60
2023/06/01 11:40:24;;;;;;;2.47;1.20;;;;;;;28.14;30.71;100250.84;10319361;28;20103;-60
2023/06/01 11:45:30;;;;;;;3.60;1.63;;;;;;;28.42;30.28;100246.50;10337761;28;21945;-60
2023/06/01 11:50:32;;;;;;;7.57;1.50;;;;;;;28.61;28.87;100240.88;10312384;28;20061;-61
2023/06/01 11:55:34;;;;;;;2.60;1.10;;;;;;;28.63;29.42;100241.44;10330641;28;20045;-60
2023/06/01 12:00:38;;;;;;;4.60;1.50;;;;;;;28.69;28.64;100237.72;10333070;28;20139;-61
2023/06/01 12:05:49;;;;;;;1.92;1.13;;;;;;;28.72;27.71;100231.81;10332335;28;20749;-61
2023/06/01 12:10:52;;;;;;;4.25;1.52;;;;;;;28.79;28.55;100237.94;10332224;28;20144;-61
2023/06/01 12:15:54;;;;;;;1.88;1.23;;;;;;;28.84;28.41;100239.94;10330907;28;20514;-52
2023/06/01 12:20:55;;;;;;;3.73;1.47;;;;;;;28.72;27.53;100234.53;10316906;28;20248;-52
2023/06/01 12:26:00;;;;;;;3.77;1.10;;;;;;;28.67;28.48;100223.47;10310918;28;20126;-52
2023/06/01 12:31:10;;;;;;;2.03;1.00;;;;;;;28.64;29.03;100215.75;10298774;28;20705;-53
2023/06/01 12:36:31;;;;;;;3.40;1.30;;;;;;;28.65;27.98;100209.19;10331089;28;20359;-52
2023/06/01 12:41:32;;;;;;;3.60;1.15;;;;;;;28.63;27.66;100211.34;10332734;28;20069;-52
2023/06/01 12:46:35;;;;;;;2.10;1.23;;;;;;;28.55;27.03;100205.16;10327474;28;20219;-53
2023/06/01 12:51:38;;;;;;;1.80;1.00;;;;;;;28.55;27.12;100199.69;10333718;28;20061;-52
2023/06/01 12:56:40;;;;;;;2.45;1.27;;;;;;;28.61;27.65;100186.13;10329757;28;20060;-52
2023/06/01 13:01:41;;;;;;;2.50;1.10;;;;;;;28.53;26.59;100190.88;10327504;28;20575;-51
2023/06/01 13:06:44;;;;;;;1.95;0.90;;;;;;;28.56;26.16;100167.66;10331098;28;20103;-52
2023/06/01 13:11:46;;;;;;;1.20;0.80;;;;;;;28.58;26.31;100162.75;10328421;28;20160;-52
2023/06/01 13:16:47;;;;;;;2.53;1.03;;;;;;;28.53;26.55;100165.41;10334003;28;20648;-51
2023/06/01 13:21:48;;;;;;;1.50;1.05;;;;;;;28.48;26.50;100160.66;10330702;28;20187;-52
2023/06/01 13:26:50;;;;;;;4.87;1.10;;;;;;;28.44;25.86;100139.50;10304970;28;20061;-51
2023/06/01 13:31:52;;;;;;;1.90;0.90;;;;;;;28.41;26.21;100140.00;10330757;28;20711;-51
2023/06/01 13:36:53;;;;;;;2.07;1.03;;;;;;;28.43;27.49;100137.84;10313523;28;20156;-51
2023/06/01 13:41:55;;;;;;;3.93;1.50;;;;;;;28.35;27.31;100144.53;10335518;28;20049;-52
2023/06/01 13:46:56;;;;;;;2.90;0.93;;;;;;;28.35;28.02;100133.59;10337986;28;20219;-51
2023/06/01 13:51:58;;;;;;;2.97;1.10;;;;;;;28.28;26.69;100111.00;10341128;28;20172;-52
2023/06/01 13:57:02;;;;;;;;;;;;;;;28.34;26.92;100120.97;10339279;28;20419;-51
2023/06/01 14:02:05;;;;;;;2.10;0.90;;;;;;;28.21;28.08;100114.72;10339538;28;19929;-53
2023/06/01 14:07:06;;;;;;;;;;;;;;;28.15;28.35;100121.16;10319182;28;20056;-51
2023/06/01 14:12:08;;;;;;;2.78;1.23;;;;;;;27.93;28.33;100095.53;10342919;28;19937;-51
2023/06/01 14:17:10;;;;;;;2.70;1.60;;;;;;;27.99;28.95;100102.78;10338541;28;20072;-51
2023/06/01 14:22:12;;;;;;;2.93;1.20;;;;;;;28.02;28.78;100096.81;10323182;28;20168;-51
2023/06/01 14:27:15;;;;;;;;;;;;;;;27.95;28.48;100090.63;10318981;28;20356;-51
2023/06/01 14:32:16;;;;;;;2.40;0.93;;;;;;;27.81;29.00;100090.91;10334511;28;19929;-52
2023/06/01 14:37:18;;;;;;;4.05;1.30;;;;;;;27.75;28.78;100085.59;10320886;28;20553;-51
2023/06/01 14:42:19;;;;;;;1.63;1.10;;;;;;;27.80;28.68;100078.31;10334899;28;20951;-52
2023/06/01 14:47:21;;;;;;;2.80;0.90;;;;;;;27.82;28.44;100076.16;10336275;28;20050;-52
2023/06/01 14:52:22;;;;;;;4.88;1.42;;;;;;;27.79;28.98;100076.66;10339772;28;20064;-52
2023/06/01 14:57:24;;;;;;;2.10;1.08;;;;;;;27.75;29.67;100071.91;10340848;28;20083;-52
2023/06/01 15:02:25;;;;;;;4.68;1.50;;;;;;;27.65;29.72;100067.03;10322189;28;20054;-52
2023/06/01 15:07:27;;;;;;;5.15;2.15;;;;;;;27.65;29.69;100053.38;10339293;28;20060;-52
2023/06/01 15:12:28;;;;;;;2.08;1.00;;;;;;;27.69;29.99;100055.38;10339359;28;20562;-52
2023/06/01 15:17:30;;;;;;;2.90;1.33;;;;;;;27.69;29.90;100051.81;10343437;28;20376;-52
2023/06/01 15:22:32;;;;;;;2.37;1.40;;;;;;;27.63;30.40;100044.59;10340708;28;20168;-51
2023/06/01 15:27:35;;;;;;;2.53;1.10;;;;;;;27.59;30.11;100035.22;10334958;28;20061;-53
2023/06/01 15:32:37;;;;;;;1.90;1.27;;;;;;;27.57;30.80;100029.16;10326296;28;20061;-52
2023/06/01 15:37:38;;;;;;;3.47;1.97;;;;;;;27.52;30.62;100033.44;10339520;28;20157;-51
2023/06/01 15:42:40;;;;;;;1.80;1.42;;;;;;;27.39;30.58;100025.50;10337829;28;20056;-54
2023/06/01 15:47:42;;;;;;;3.13;1.20;;;;;;;27.31;31.26;100021.22;10334131;28;20049;-52
2023/06/01 15:52:43;;;;;;;3.95;1.83;;;;;;;27.40;31.51;100024.44;10334441;28;20064;-51
2023/06/01 15:57:45;;;;;;;3.95;1.60;;;;;;;27.42;31.10;100022.28;10337313;28;20045;-51
2023/06/01 16:02:46;;;;;;;3.03;1.65;;;;;;;27.42;31.44;100008.63;10341489;28;21932;-51
2023/06/01 16:07:48;;;;;;;2.33;1.70;;;;;;;27.39;31.81;100003.66;10340396;28;20063;-51
2023/06/01 16:12:49;;;;;;;5.68;2.80;;;;;;;27.44;32.00;100003.78;10337095;28;20060;-51
2023/06/01 16:17:51;;;;;;;4.20;1.90;;;;;;;27.46;31.56;100001.63;10337890;28;20061;-52
2023/06/01 16:22:52;;;;;;;7.30;3.72;;;;;;;27.37;32.27;100007.69;10339376;28;20048;-49
2023/06/01 16:27:53;;;;;;;6.22;3.42;;;;;;;27.03;31.76;99997.38;10333671;28;20060;-49
2023/06/01 16:32:57;;;;;;;5.55;3.13;;;;;;;26.76;31.37;100014.22;10334970;28;20062;-49
2023/06/01 16:37:59;;;;;;;6.22;3.72;;;;;;;26.73;31.18;100011.97;10337699;28;20100;-48
2023/06/01 16:43:00;;;;;;;4.60;3.33;;;;;;;26.71;30.93;100013.25;10335487;28;20096;-49
2023/06/01 16:48:02;;;;;;;9.68;3.95;;;;;;;26.71;31.62;100022.28;10333332;28;20053;-48
2023/06/01 16:53:03;;;;;;;4.90;3.72;;;;;;;26.66;31.39;100026.75;10325380;28;20092;-48
2023/06/01 16:58:05;;;;;;;3.17;2.88;;;;;;;26.52;31.82;100023.44;10334468;28;20049;-49
2023/06/01 17:03:07;;;;;;;5.38;3.92;;;;;;;26.40;32.20;100024.22;10337236;28;20685;-49
2023/06/01 17:08:08;;;;;;;3.92;3.40;;;;;;;26.32;31.95;100019.13;10338531;28;20113;-49
2023/06/01 17:13:10;;;;;;;5.07;3.83;;;;;;;26.15;32.35;100023.56;10327845;28;20081;-49
2023/06/01 17:18:11;;;;;;;5.07;3.10;;;;;;;26.13;32.51;100036.59;10328675;28;20490;-48
2023/06/01 17:23:13;;;;;;;5.45;3.53;;;;;;;26.03;32.57;100028.97;10333218;28;20049;-49
2023/06/01 17:28:14;;;;;;;3.13;2.83;;;;;;;25.98;32.58;100028.81;10329118;28;20049;-49
2023/06/01 17:33:17;;;;;;;4.70;3.13;;;;;;;25.93;32.93;100024.88;10331338;28;20606;-53
2023/06/01 17:38:19;;;;;;;4.88;3.55;;;;;;;25.79;32.94;100037.00;10331552;28;20153;-49
2023/06/01 17:43:23;;;;;;;5.82;3.95;;;;;;;25.62;33.71;100031.34;10330882;28;20065;-51
2023/06/01 17:48:24;;;;;;;5.18;3.88;;;;;;;25.59;34.10;100026.34;10330758;28;20852;-48
2023/06/01 17:53:26;;;;;;;3.90;3.50;;;;;;;25.45;34.06;100041.22;10333555;28;20279;-49
2023/06/01 17:58:41;;;;;;;5.20;3.78;;;;;;;25.38;33.62;100039.38;10312728;28;20064;-48
2023/06/01 18:03:43;;;;;;;4.90;3.43;;;;;;;25.26;33.60;100038.44;10323083;28;20088;-48
2023/06/01 18:08:45;;;;;;;5.50;3.72;;;;;;;25.22;33.78;100037.19;10337311;28;20110;-48
2023/06/01 18:13:49;;;;;;;4.13;3.67;;;;;;;25.05;33.74;100036.97;10331262;28;20060;-50
2023/06/01 18:18:50;;;;;;;6.72;3.40;;;;;;;24.95;34.94;100044.81;10316207;28;20052;-48
2023/06/01 18:23:52;;;;;;;5.45;3.35;;;;;;;24.86;35.20;100042.38;10328784;28;20086;-49
2023/06/01 18:28:53;;;;;;;4.43;3.92;;;;;;;24.56;35.55;100036.75;10331040;28;20136;-48
2023/06/01 18:33:55;;;;;;;6.20;3.80;;;;;;;24.42;34.77;100044.13;10318420;28;21561;-49
2023/06/01 18:38:56;;;;;;;4.82;4.35;;;;;;;24.47;35.30;100046.19;10336995;28;20460;-50
2023/06/01 18:43:58;;;;;;;7.80;4.40;;;;;;;24.48;35.36;100056.03;10338893;28;20191;-49
2023/06/01 18:49:00;;;;;;;6.20;3.67;;;;;;;24.38;35.43;100063.84;10338739;28;20729;-49
2023/06/01 18:54:02;;;;;;;5.63;3.80;;;;;;;24.29;35.70;100071.41;10322490;28;20057;-49
2023/06/01 18:59:03;;;;;;;7.53;3.93;;;;;;;24.18;36.06;100070.22;10339623;28;20085;-49
2023/06/01 19:04:05;;;;;;;6.10;3.78;;;;;;;24.14;35.70;100079.88;10337897;28;20126;-49
2023/06/01 19:09:08;;;;;;;6.82;4.70;;;;;;;24.04;36.15;100079.53;10335617;28;20057;-49
2023/06/01 19:14:14;;;;;;;5.03;4.32;;;;;;;23.95;36.27;100077.03;10337492;28;20053;-49
2023/06/01 19:19:21;;;;;;;5.10;3.83;;;;;;;23.81;36.18;100081.66;10336700;28;20353;-50
2023/06/01 19:24:25;;;;;;;5.18;4.13;;;;;;;23.63;36.47;100090.50;10339592;28;20247;-48
2023/06/01 19:29:38;;;;;;;3.90;3.38;;;;;;;23.56;37.28;100095.13;10337123;28;20076;-47
2023/06/01 19:34:40;;;;;;;3.95;3.63;;;;;;;23.51;37.77;100097.66;10334737;28;20049;-47
2023/06/01 19:39:44;;;;;;;6.97;4.30;;;;;;;23.45;37.44;100109.38;10337191;28;20046;-48
2023/06/01 19:44:45;;;;;;;;;;;;;;;23.19;37.91;100112.94;10337118;28;20045;-48
2023/06/01 19:49:48;;;;;;;4.37;3.87;;;;;;;23.17;38.15;100117.75;10336146;28;20375;-48
2023/06/01 19:54:54;;;;;;;7.65;4.90;;;;;;;23.14;38.57;100127.13;10335232;28;20353;-47
2023/06/01 19:59:56;;;;;;;4.22;3.60;;;;;;;23.00;38.89;100133.56;10334829;28;20061;-49
2023/06/01 20:04:57;;;;;;;5.82;4.22;;;;;;;22.86;39.02;100128.13;10339575;28;20049;-49
2023/06/01 20:09:58;;;;;;;5.38;4.13;;;;;;;22.69;39.37;100145.88;10334094;28;20457;-48
2023/06/01 20:15:00;;;;;;;6.57;4.30;;;;;;;22.63;39.78;100150.22;10332995;28;20057;-50
2023/06/01 20:20:05;;;;;;;7.40;4.50;;;;;;;22.49;40.28;100160.22;10336266;28;21575;-48
2023/06/01 20:25:07;;;;;;;6.18;4.40;;;;;;;22.31;40.21;100157.19;10336068;28;20050;-48
2023/06/01 20:30:27;;;;;;;6.22;4.53;;;;;;;22.03;40.80;100164.38;10336339;28;20447;-48
2023/06/01 20:35:28;;;;;;;5.70;5.07;;;;;;;21.82;41.51;100169.91;10332290;28;20053;-48
2023/06/01 20:40:45;;;;;;;6.03;4.43;;;;;;;21.88;41.21;100175.34;10338931;28;20045;-48
2023/06/01 20:46:03;;;;;;;6.80;4.20;;;;;;;21.82;41.12;100175.31;10333814;28;20045;-48
2023/06/01 20:51:12;;;;;;;5.60;5.07;;;;;;;21.68;41.42;100180.66;10333247;28;20053;-49
2023/06/01 20:56:20;;;;;;;4.53;4.10;;;;;;;21.50;42.33;100183.84;10334756;28;20759;-63
2023/06/01 21:01:26;;;;;;;5.55;5.00;;;;;;;21.20;42.44;100194.00;10308055;28;20239;-62
2023/06/01 21:06:30;;;;;;;7.47;4.93;;;;;;;21.05;42.80;100194.06;10335823;28;21316;-62
2023/06/01 21:11:33;;;;;;;8.70;5.97;;;;;;;20.73;43.41;100201.66;10325367;28;20053;-63
2023/06/01 21:16:35;;;;;;;7.50;5.43;;;;;;;20.68;43.74;100205.97;10343327;28;20136;-63
2023/06/01 21:21:37;;;;;;;6.85;4.80;;;;;;;20.57;43.87;100221.63;10342014;28;20485;-63
2023/06/01 21:26:39;;;;;;;7.80;5.38;;;;;;;20.51;43.88;100216.09;10317319;28;20053;-64
2023/06/01 21:31:40;;;;;;;6.38;5.72;;;;;;;20.33;44.82;100227.31;10327651;28;20204;-64
2023/06/01 21:36:42;;;;;;;8.50;5.15;;;;;;;20.35;45.09;100222.59;10315397;28;20206;-63
2023/06/01 21:41:44;;;;;;;10.80;5.80;;;;;;;20.24;45.21;100226.59;10273506;28;20698;-63
2023/06/01 21:46:46;;;;;;;7.00;5.35;;;;;;;20.04;45.46;100219.06;10323120;28;20065;-63
2023/06/01 21:51:48;;;;;;;8.05;5.78;;;;;;;19.80;46.25;100236.34;10332725;28;20054;-64
2023/06/01 21:56:50;;;;;;;6.10;5.25;;;;;;;19.50;47.14;100246.22;10331068;28;20830;-64
2023/06/01 22:01:51;;;;;;;6.72;4.97;;;;;;;19.55;47.04;100243.84;10336149;28;20064;-64
2023/06/01 22:06:54;;;;;;;6.80;5.35;;;;;;;19.39;47.10;100250.22;10327392;28;20542;-64
2023/06/01 22:11:55;;;;;;;6.60;5.28;;;;;;;19.03;47.69;100248.94;10341974;28;20859;-64
2023/06/01 22:16:57;;;;;;;5.82;5.30;;;;;;;19.05;47.83;100244.22;10336554;28;20077;-62
2023/06/01 22:21:59;;;;;;;5.55;4.70;;;;;;;18.93;48.05;100261.84;10326183;28;20060;-62
2023/06/01 22:27:14;;;;;;;6.22;4.72;;;;;;;18.98;48.01;100264.00;10345427;28;20513;-64
2023/06/01 22:32:15;;;;;;;7.07;5.03;;;;;;;18.94;48.30;100268.06;10332665;28;20219;-63
2023/06/01 22:37:17;;;;;;;5.70;5.07;;;;;;;18.77;48.62;100261.91;10323552;28;20162;-62
2023/06/01 22:42:19;;;;;;;5.53;4.53;;;;;;;18.77;48.85;100267.31;10331985;28;20883;-63
2023/06/01 22:47:21;;;;;;;6.43;5.20;;;;;;;18.71;48.36;100255.34;10336869;28;20060;-63
2023/06/01 22:52:27;;;;;;;4.90;4.40;;;;;;;18.65;49.06;100264.97;10329758;28;20717;-63
2023/06/01 22:57:29;;;;;;;4.95;4.53;;;;;;;18.50;49.09;100264.88;10346549;28;20041;-64
2023/06/01 23:02:30;;;;;;;5.10;4.70;;;;;;;18.23;50.49;100271.56;10317212;28;20046;-63
2023/06/01 23:07:36;;;;;;;6.35;5.28;;;;;;;18.22;50.26;100271.72;10345663;28;20049;-63
2023/06/01 23:12:38;;;;;;;5.00;4.50;;;;;;;18.10;50.43;100265.88;10346505;28;20607;-63
2023/06/01 23:17:40;;;;;;;5.70;4.78;;;;;;;18.05;50.66;100274.47;10334121;28;20115;-63
2023/06/01 23:22:44;;;;;;;5.35;4.82;;;;;;;18.03;50.48;100276.50;10334247;28;21809;-64